This is the latest recevied weather packets stored in our database for station/object KS5S. If no packets are shown the sender has not sent any weather packets the latest 1 day(s).
| Time | Temp. | Humidity | Pressure | Rain* | Wind** | Luminosity | Snow |
|---|---|---|---|---|---|---|---|
| 1778012150 | 32.78° C | 56% | 1002.6 hPa | 0 mm | 2.68 m/s, 217° | 834 W/m² | - |
| 1778011848 | 32.78° C | 57% | 1002.5 hPa | 0 mm | 1.79 m/s, 194° | 850 W/m² | - |
| 1778011545 | 32.78° C | 55% | 1002.7 hPa | 0 mm | 2.24 m/s, 224° | 853 W/m² | - |
| 1778011242 | 32.22° C | 59% | 1002.5 hPa | 0 mm | 1.79 m/s, 241° | 928 W/m² | - |
| 1778010938 | 31.67° C | 59% | 1002.6 hPa | 0 mm | 2.24 m/s, 202° | 776 W/m² | - |
| 1778010636 | 31.67° C | 58% | 1002.8 hPa | 0 mm | 1.79 m/s, 223° | 691 W/m² | - |
| 1778010333 | 31.67° C | 60% | 1002.6 hPa | 0 mm | 1.34 m/s, 202° | 723 W/m² | - |
| 1778010028 | 31.67° C | 60% | 1002.6 hPa | 0 mm | 3.13 m/s, 225° | 1027 W/m² | - |
| 1778009726 | 31.11° C | 60% | 1003 hPa | 0 mm | 1.34 m/s, 240° | 658 W/m² | - |
| 1778009423 | 31.67° C | 62% | 1003 hPa | 0 mm | 2.24 m/s, 187° | 609 W/m² | - |
| 1778009121 | 31.11° C | 61% | 1003 hPa | 0 mm | 4.02 m/s, 208° | 358 W/m² | - |
| 1778008818 | 31.11° C | 63% | 1002.9 hPa | 0 mm | 4.47 m/s, 188° | 449 W/m² | - |
| 1778008517 | 31.11° C | 62% | 1003 hPa | 0 mm | 2.24 m/s, 243° | 581 W/m² | - |
| 1778008214 | 30.56° C | 65% | 1002.9 hPa | 0 mm | 2.24 m/s, 182° | 361 W/m² | - |
| 1778007909 | 30.56° C | 65% | 1002.8 hPa | 0 mm | 2.68 m/s, 233° | 455 W/m² | - |
| 1778007605 | 30.56° C | 65% | 1003.2 hPa | 0 mm | 1.34 m/s, 194° | 514 W/m² | - |
| 1778007302 | 30° C | 66% | 1003.2 hPa | 0 mm | 4.02 m/s, 252° | 595 W/m² | - |
| 1778006998 | 30.56° C | 66% | 1003.3 hPa | 0 mm | 3.58 m/s, 221° | 432 W/m² | - |
| 1778006695 | 30° C | 66% | 1003.4 hPa | 0 mm | 4.02 m/s, 217° | 569 W/m² | - |
| 1778006391 | 30° C | 68% | 1003.2 hPa | 0 mm | 2.68 m/s, 225° | 564 W/m² | - |
| 1778006089 | 30° C | 67% | 1003.3 hPa | 0 mm | 4.92 m/s, 234° | 620 W/m² | - |
| 1778005785 | 29.44° C | 69% | 1003.3 hPa | 0 mm | 3.13 m/s, 229° | 573 W/m² | - |
| 1778005482 | 30° C | 67% | 1003.7 hPa | 0 mm | 2.24 m/s, 180° | 592 W/m² | - |
| 1778005178 | 29.44° C | 68% | 1003.5 hPa | 0 mm | 4.02 m/s, 234° | 907 W/m² | - |
| 1778004876 | 29.44° C | 70% | 1003.7 hPa | 0 mm | 3.13 m/s, 217° | 707 W/m² | - |
* Rain latest hour (hover to see other rain measurements)
** Current wind speed in m/s (hover to see current wind gust speed)